sensor_id;sensor_type;location;lat;lon;timestamp;temperature;humidity
10083;DHT22;5080;48.528;8.078;2023-07-16T00:00:23;22.20;99.90
10083;DHT22;5080;48.528;8.078;2023-07-16T00:02:50;22.20;99.90
10083;DHT22;5080;48.528;8.078;2023-07-16T00:05:16;22.10;99.90
10083;DHT22;5080;48.528;8.078;2023-07-16T00:07:43;22.10;99.90
10083;DHT22;5080;48.528;8.078;2023-07-16T00:10:10;22.00;99.90
10083;DHT22;5080;48.528;8.078;2023-07-16T00:12:37;21.90;99.90
10083;DHT22;5080;48.528;8.078;2023-07-16T00:15:05;21.90;99.90
10083;DHT22;5080;48.528;8.078;2023-07-16T00:17:34;21.80;99.90
10083;DHT22;5080;48.528;8.078;2023-07-16T00:20:01;21.80;99.90
10083;DHT22;5080;48.528;8.078;2023-07-16T00:22:28;21.80;99.90
10083;DHT22;5080;48.528;8.078;2023-07-16T00:24:55;21.70;99.90
10083;DHT22;5080;48.528;8.078;2023-07-16T00:27:22;21.60;99.90
10083;DHT22;5080;48.528;8.078;2023-07-16T00:29:48;21.50;99.90
10083;DHT22;5080;48.528;8.078;2023-07-16T00:32:15;21.40;99.90
10083;DHT22;5080;48.528;8.078;2023-07-16T00:34:43;21.40;99.90
10083;DHT22;5080;48.528;8.078;2023-07-16T00:37:11;21.40;99.90
10083;DHT22;5080;48.528;8.078;2023-07-16T00:39:38;21.50;99.90
10083;DHT22;5080;48.528;8.078;2023-07-16T00:42:05;21.50;99.90
10083;DHT22;5080;48.528;8.078;2023-07-16T00:44:32;21.60;99.90
10083;DHT22;5080;48.528;8.078;2023-07-16T00:46:59;21.60;99.90
10083;DHT22;5080;48.528;8.078;2023-07-16T00:49:26;21.50;99.90
10083;DHT22;5080;48.528;8.078;2023-07-16T00:51:56;21.50;99.90
10083;DHT22;5080;48.528;8.078;2023-07-16T00:54:23;21.60;99.90
10083;DHT22;5080;48.528;8.078;2023-07-16T00:56:50;21.50;99.90
10083;DHT22;5080;48.528;8.078;2023-07-16T00:59:17;21.30;99.90
10083;DHT22;5080;48.528;8.078;2023-07-16T01:01:44;21.20;99.90
10083;DHT22;5080;48.528;8.078;2023-07-16T01:04:10;21.10;99.90
10083;DHT22;5080;48.528;8.078;2023-07-16T01:06:41;21.20;99.90
10083;DHT22;5080;48.528;8.078;2023-07-16T01:09:15;21.10;99.90
10083;DHT22;5080;48.528;8.078;2023-07-16T01:11:43;21.00;99.90
10083;DHT22;5080;48.528;8.078;2023-07-16T01:14:10;21.00;99.90
10083;DHT22;5080;48.528;8.078;2023-07-16T01:16:41;20.90;99.90
10083;DHT22;5080;48.528;8.078;2023-07-16T01:19:08;20.90;99.90
10083;DHT22;5080;48.528;8.078;2023-07-16T01:21:38;20.90;99.90
10083;DHT22;5080;48.528;8.078;2023-07-16T01:24:34;20.90;99.90
10083;DHT22;5080;48.528;8.078;2023-07-16T01:27:21;20.90;99.90
10083;DHT22;5080;48.528;8.078;2023-07-16T01:29:58;20.90;99.90
10083;DHT22;5080;48.528;8.078;2023-07-16T01:32:29;20.90;99.90
10083;DHT22;5080;48.528;8.078;2023-07-16T01:34:57;20.80;99.90
10083;DHT22;5080;48.528;8.078;2023-07-16T01:37:26;20.90;99.90
10083;DHT22;5080;48.528;8.078;2023-07-16T01:39:53;20.80;99.90
10083;DHT22;5080;48.528;8.078;2023-07-16T01:42:20;20.90;99.90
10083;DHT22;5080;48.528;8.078;2023-07-16T01:44:47;20.90;99.90
10083;DHT22;5080;48.528;8.078;2023-07-16T01:47:23;20.90;99.90
10083;DHT22;5080;48.528;8.078;2023-07-16T01:49:50;20.80;99.90
10083;DHT22;5080;48.528;8.078;2023-07-16T01:52:17;20.60;99.90
10083;DHT22;5080;48.528;8.078;2023-07-16T01:54:44;20.40;99.90
10083;DHT22;5080;48.528;8.078;2023-07-16T01:57:11;20.40;99.90
10083;DHT22;5080;48.528;8.078;2023-07-16T01:59:38;20.40;99.90
10083;DHT22;5080;48.528;8.078;2023-07-16T02:02:05;20.30;99.90
10083;DHT22;5080;48.528;8.078;2023-07-16T02:04:33;20.30;99.90
10083;DHT22;5080;48.528;8.078;2023-07-16T02:07:00;20.20;99.90
10083;DHT22;5080;48.528;8.078;2023-07-16T02:09:27;20.20;99.90
10083;DHT22;5080;48.528;8.078;2023-07-16T02:11:54;20.20;99.90
10083;DHT22;5080;48.528;8.078;2023-07-16T02:14:21;20.10;99.90
10083;DHT22;5080;48.528;8.078;2023-07-16T02:16:47;20.10;99.90
10083;DHT22;5080;48.528;8.078;2023-07-16T02:19:14;20.10;99.90
10083;DHT22;5080;48.528;8.078;2023-07-16T02:21:42;20.20;99.90
10083;DHT22;5080;48.528;8.078;2023-07-16T02:24:09;20.20;99.90
10083;DHT22;5080;48.528;8.078;2023-07-16T02:26:36;20.20;99.90
10083;DHT22;5080;48.528;8.078;2023-07-16T02:29:03;20.20;99.90
10083;DHT22;5080;48.528;8.078;2023-07-16T02:31:34;20.20;99.90
10083;DHT22;5080;48.528;8.078;2023-07-16T02:34:01;20.20;99.90
10083;DHT22;5080;48.528;8.078;2023-07-16T02:36:27;20.20;99.90
10083;DHT22;5080;48.528;8.078;2023-07-16T02:38:55;20.20;99.90
10083;DHT22;5080;48.528;8.078;2023-07-16T02:41:22;20.20;99.90
10083;DHT22;5080;48.528;8.078;2023-07-16T02:43:59;20.10;99.90
10083;DHT22;5080;48.528;8.078;2023-07-16T02:46:26;20.10;99.90
10083;DHT22;5080;48.528;8.078;2023-07-16T02:48:53;20.00;99.90
10083;DHT22;5080;48.528;8.078;2023-07-16T02:51:20;19.90;99.90
10083;DHT22;5080;48.528;8.078;2023-07-16T02:53:47;19.90;99.90
10083;DHT22;5080;48.528;8.078;2023-07-16T02:56:15;20.00;99.90
10083;DHT22;5080;48.528;8.078;2023-07-16T02:58:43;20.00;99.90
10083;DHT22;5080;48.528;8.078;2023-07-16T03:01:09;20.00;99.90
10083;DHT22;5080;48.528;8.078;2023-07-16T03:03:36;19.90;99.90
10083;DHT22;5080;48.528;8.078;2023-07-16T03:06:03;19.90;99.90
10083;DHT22;5080;48.528;8.078;2023-07-16T03:08:30;19.90;99.90
10083;DHT22;5080;48.528;8.078;2023-07-16T03:10:57;19.90;99.90
10083;DHT22;5080;48.528;8.078;2023-07-16T03:13:25;19.90;99.90
10083;DHT22;5080;48.528;8.078;2023-07-16T03:15:52;19.90;99.90
10083;DHT22;5080;48.528;8.078;2023-07-16T03:18:19;19.90;99.90
10083;DHT22;5080;48.528;8.078;2023-07-16T03:20:46;19.90;99.90
10083;DHT22;5080;48.528;8.078;2023-07-16T03:23:13;19.80;99.90
10083;DHT22;5080;48.528;8.078;2023-07-16T03:25:39;19.80;99.90
10083;DHT22;5080;48.528;8.078;2023-07-16T03:28:06;19.80;99.90
10083;DHT22;5080;48.528;8.078;2023-07-16T03:30:34;19.70;99.90
10083;DHT22;5080;48.528;8.078;2023-07-16T03:33:02;19.60;99.90
10083;DHT22;5080;48.528;8.078;2023-07-16T03:35:29;19.50;99.90
10083;DHT22;5080;48.528;8.078;2023-07-16T03:37:57;19.50;99.90
10083;DHT22;5080;48.528;8.078;2023-07-16T03:40:25;19.40;99.90
10083;DHT22;5080;48.528;8.078;2023-07-16T03:42:53;19.50;99.90
10083;DHT22;5080;48.528;8.078;2023-07-16T03:45:20;19.50;99.90
10083;DHT22;5080;48.528;8.078;2023-07-16T03:47:48;19.50;99.90
10083;DHT22;5080;48.528;8.078;2023-07-16T03:50:15;19.60;99.90
10083;DHT22;5080;48.528;8.078;2023-07-16T03:52:43;19.60;99.90
10083;DHT22;5080;48.528;8.078;2023-07-16T03:55:10;19.60;99.90
10083;DHT22;5080;48.528;8.078;2023-07-16T03:57:37;19.60;99.90
10083;DHT22;5080;48.528;8.078;2023-07-16T04:00:04;19.60;99.90
10083;DHT22;5080;48.528;8.078;2023-07-16T04:02:34;19.60;99.90
10083;DHT22;5080;48.528;8.078;2023-07-16T04:05:03;19.60;99.90
10083;DHT22;5080;48.528;8.078;2023-07-16T04:07:30;19.60;99.90
10083;DHT22;5080;48.528;8.078;2023-07-16T04:09:57;19.60;99.90
10083;DHT22;5080;48.528;8.078;2023-07-16T04:12:23;19.60;99.90
10083;DHT22;5080;48.528;8.078;2023-07-16T04:14:55;19.60;99.90
10083;DHT22;5080;48.528;8.078;2023-07-16T04:17:23;19.60;99.90
10083;DHT22;5080;48.528;8.078;2023-07-16T04:19:50;19.60;99.90
10083;DHT22;5080;48.528;8.078;2023-07-16T04:22:18;19.50;99.90
10083;DHT22;5080;48.528;8.078;2023-07-16T04:24:45;19.40;99.90
10083;DHT22;5080;48.528;8.078;2023-07-16T04:27:11;19.40;99.90
10083;DHT22;5080;48.528;8.078;2023-07-16T04:29:38;19.40;99.90
10083;DHT22;5080;48.528;8.078;2023-07-16T04:32:05;19.40;99.90
10083;DHT22;5080;48.528;8.078;2023-07-16T04:34:32;19.40;99.90
10083;DHT22;5080;48.528;8.078;2023-07-16T04:36:59;19.40;99.90
10083;DHT22;5080;48.528;8.078;2023-07-16T04:39:27;19.40;99.90
10083;DHT22;5080;48.528;8.078;2023-07-16T04:41:54;19.40;99.90
10083;DHT22;5080;48.528;8.078;2023-07-16T04:44:21;19.30;99.90
10083;DHT22;5080;48.528;8.078;2023-07-16T04:46:48;19.30;99.90
10083;DHT22;5080;48.528;8.078;2023-07-16T04:49:15;19.30;99.90
10083;DHT22;5080;48.528;8.078;2023-07-16T04:51:41;19.40;99.90
10083;DHT22;5080;48.528;8.078;2023-07-16T04:54:08;19.50;99.90
10083;DHT22;5080;48.528;8.078;2023-07-16T04:56:37;19.60;99.90
10083;DHT22;5080;48.528;8.078;2023-07-16T04:59:03;19.70;99.90
10083;DHT22;5080;48.528;8.078;2023-07-16T05:01:30;19.60;99.90
10083;DHT22;5080;48.528;8.078;2023-07-16T05:03:57;19.60;99.90
10083;DHT22;5080;48.528;8.078;2023-07-16T05:06:24;19.50;99.90
10083;DHT22;5080;48.528;8.078;2023-07-16T05:08:51;19.60;99.90
10083;DHT22;5080;48.528;8.078;2023-07-16T05:11:17;19.60;99.90
10083;DHT22;5080;48.528;8.078;2023-07-16T05:13:46;19.60;99.90
10083;DHT22;5080;48.528;8.078;2023-07-16T05:16:12;19.60;99.90
10083;DHT22;5080;48.528;8.078;2023-07-16T05:18:39;19.60;99.90
10083;DHT22;5080;48.528;8.078;2023-07-16T05:21:06;19.60;99.90
10083;DHT22;5080;48.528;8.078;2023-07-16T05:23:33;19.60;99.90
10083;DHT22;5080;48.528;8.078;2023-07-16T05:26:00;19.60;99.90
10083;DHT22;5080;48.528;8.078;2023-07-16T05:28:26;19.60;99.90
10083;DHT22;5080;48.528;8.078;2023-07-16T05:31:01;19.70;99.90
10083;DHT22;5080;48.528;8.078;2023-07-16T05:33:28;19.70;99.90
10083;DHT22;5080;48.528;8.078;2023-07-16T05:35:55;19.80;99.90
10083;DHT22;5080;48.528;8.078;2023-07-16T05:38:22;19.80;99.90
10083;DHT22;5080;48.528;8.078;2023-07-16T05:40:50;19.90;99.90
10083;DHT22;5080;48.528;8.078;2023-07-16T05:43:16;20.00;99.90
10083;DHT22;5080;48.528;8.078;2023-07-16T05:45:43;20.10;99.90
10083;DHT22;5080;48.528;8.078;2023-07-16T05:48:11;20.20;99.90
10083;DHT22;5080;48.528;8.078;2023-07-16T05:50:38;20.20;99.90
10083;DHT22;5080;48.528;8.078;2023-07-16T05:53:05;20.20;99.90
10083;DHT22;5080;48.528;8.078;2023-07-16T05:55:32;20.30;99.90
10083;DHT22;5080;48.528;8.078;2023-07-16T05:57:59;20.20;99.90
10083;DHT22;5080;48.528;8.078;2023-07-16T06:00:25;20.30;99.90
10083;DHT22;5080;48.528;8.078;2023-07-16T06:02:52;20.30;99.90
10083;DHT22;5080;48.528;8.078;2023-07-16T06:05:21;20.30;99.90
10083;DHT22;5080;48.528;8.078;2023-07-16T06:07:48;20.30;99.90
10083;DHT22;5080;48.528;8.078;2023-07-16T06:10:15;20.30;99.90
10083;DHT22;5080;48.528;8.078;2023-07-16T06:12:42;20.40;99.90
10083;DHT22;5080;48.528;8.078;2023-07-16T06:15:09;20.40;99.90
10083;DHT22;5080;48.528;8.078;2023-07-16T06:17:36;20.50;99.90
10083;DHT22;5080;48.528;8.078;2023-07-16T06:20:03;20.60;99.90
10083;DHT22;5080;48.528;8.078;2023-07-16T06:22:32;20.50;99.90
10083;DHT22;5080;48.528;8.078;2023-07-16T06:24:59;20.50;99.90
10083;DHT22;5080;48.528;8.078;2023-07-16T06:27:26;20.60;99.90
10083;DHT22;5080;48.528;8.078;2023-07-16T06:29:53;20.60;99.90
10083;DHT22;5080;48.528;8.078;2023-07-16T06:32:20;20.60;99.90
10083;DHT22;5080;48.528;8.078;2023-07-16T06:34:47;20.70;99.90
10083;DHT22;5080;48.528;8.078;2023-07-16T06:37:13;20.70;99.90
10083;DHT22;5080;48.528;8.078;2023-07-16T06:39:41;20.80;99.90
10083;DHT22;5080;48.528;8.078;2023-07-16T06:42:08;20.90;99.90
10083;DHT22;5080;48.528;8.078;2023-07-16T06:44:35;20.90;99.90
10083;DHT22;5080;48.528;8.078;2023-07-16T06:47:02;21.00;99.90
10083;DHT22;5080;48.528;8.078;2023-07-16T06:49:29;21.00;99.90
10083;DHT22;5080;48.528;8.078;2023-07-16T06:51:56;21.10;99.90
10083;DHT22;5080;48.528;8.078;2023-07-16T06:54:23;21.10;99.90
10083;DHT22;5080;48.528;8.078;2023-07-16T06:56:51;21.10;99.90
10083;DHT22;5080;48.528;8.078;2023-07-16T06:59:18;21.10;99.90
10083;DHT22;5080;48.528;8.078;2023-07-16T07:01:45;21.20;99.90
10083;DHT22;5080;48.528;8.078;2023-07-16T07:04:12;21.30;99.90
10083;DHT22;5080;48.528;8.078;2023-07-16T07:06:39;21.40;99.90
10083;DHT22;5080;48.528;8.078;2023-07-16T07:09:06;21.50;99.90
10083;DHT22;5080;48.528;8.078;2023-07-16T07:11:33;21.60;99.90
10083;DHT22;5080;48.528;8.078;2023-07-16T07:14:01;21.60;99.90
10083;DHT22;5080;48.528;8.078;2023-07-16T07:16:28;21.60;99.90
10083;DHT22;5080;48.528;8.078;2023-07-16T07:18:56;21.80;99.90
10083;DHT22;5080;48.528;8.078;2023-07-16T07:21:23;21.70;99.90
10083;DHT22;5080;48.528;8.078;2023-07-16T07:23:49;21.80;99.90
10083;DHT22;5080;48.528;8.078;2023-07-16T07:26:16;21.80;99.90
10083;DHT22;5080;48.528;8.078;2023-07-16T07:28:43;21.80;99.90
10083;DHT22;5080;48.528;8.078;2023-07-16T07:31:11;21.80;99.90
10083;DHT22;5080;48.528;8.078;2023-07-16T07:33:38;21.90;99.90
10083;DHT22;5080;48.528;8.078;2023-07-16T07:36:05;21.80;99.90
10083;DHT22;5080;48.528;8.078;2023-07-16T07:38:32;21.70;99.90
10083;DHT22;5080;48.528;8.078;2023-07-16T07:40:58;21.80;99.90
10083;DHT22;5080;48.528;8.078;2023-07-16T07:43:26;21.80;99.90
10083;DHT22;5080;48.528;8.078;2023-07-16T07:45:53;21.80;99.90
10083;DHT22;5080;48.528;8.078;2023-07-16T07:48:21;21.70;99.90
10083;DHT22;5080;48.528;8.078;2023-07-16T07:50:48;21.70;99.90
10083;DHT22;5080;48.528;8.078;2023-07-16T07:53:15;21.70;99.90
10083;DHT22;5080;48.528;8.078;2023-07-16T07:55:44;21.90;99.90
10083;DHT22;5080;48.528;8.078;2023-07-16T07:58:11;22.20;99.90
10083;DHT22;5080;48.528;8.078;2023-07-16T08:00:38;22.30;99.90
10083;DHT22;5080;48.528;8.078;2023-07-16T08:03:05;22.40;99.90
10083;DHT22;5080;48.528;8.078;2023-07-16T08:05:33;22.30;99.90
10083;DHT22;5080;48.528;8.078;2023-07-16T08:08:00;22.40;99.90
10083;DHT22;5080;48.528;8.078;2023-07-16T08:10:27;22.50;99.90
10083;DHT22;5080;48.528;8.078;2023-07-16T08:12:54;22.70;99.90
10083;DHT22;5080;48.528;8.078;2023-07-16T08:15:21;22.80;99.90
10083;DHT22;5080;48.528;8.078;2023-07-16T08:17:48;22.80;99.90
10083;DHT22;5080;48.528;8.078;2023-07-16T08:20:15;22.90;99.90
10083;DHT22;5080;48.528;8.078;2023-07-16T08:22:43;22.90;99.90
10083;DHT22;5080;48.528;8.078;2023-07-16T08:25:10;22.90;99.90
10083;DHT22;5080;48.528;8.078;2023-07-16T08:27:37;22.80;99.90
10083;DHT22;5080;48.528;8.078;2023-07-16T08:30:05;22.90;99.90
10083;DHT22;5080;48.528;8.078;2023-07-16T08:32:32;22.90;99.90
10083;DHT22;5080;48.528;8.078;2023-07-16T08:34:59;23.20;99.90
10083;DHT22;5080;48.528;8.078;2023-07-16T08:37:26;23.50;99.90
10083;DHT22;5080;48.528;8.078;2023-07-16T08:39:54;23.70;99.90
10083;DHT22;5080;48.528;8.078;2023-07-16T08:42:21;24.00;99.90
10083;DHT22;5080;48.528;8.078;2023-07-16T08:44:49;24.20;99.90
10083;DHT22;5080;48.528;8.078;2023-07-16T08:47:16;24.20;99.90
10083;DHT22;5080;48.528;8.078;2023-07-16T08:49:53;24.20;99.90
10083;DHT22;5080;48.528;8.078;2023-07-16T08:52:21;24.40;99.90
10083;DHT22;5080;48.528;8.078;2023-07-16T08:54:48;24.70;99.90
10083;DHT22;5080;48.528;8.078;2023-07-16T08:57:19;24.90;99.90
10083;DHT22;5080;48.528;8.078;2023-07-16T08:59:48;25.00;99.90
10083;DHT22;5080;48.528;8.078;2023-07-16T09:02:17;24.90;99.90
10083;DHT22;5080;48.528;8.078;2023-07-16T09:04:46;25.00;99.90
10083;DHT22;5080;48.528;8.078;2023-07-16T09:07:14;24.60;99.90
10083;DHT22;5080;48.528;8.078;2023-07-16T09:09:41;24.30;99.90
10083;DHT22;5080;48.528;8.078;2023-07-16T09:12:11;24.20;99.90
10083;DHT22;5080;48.528;8.078;2023-07-16T09:14:40;24.30;99.90
10083;DHT22;5080;48.528;8.078;2023-07-16T09:17:07;24.20;99.90
10083;DHT22;5080;48.528;8.078;2023-07-16T09:19:34;24.00;99.90
10083;DHT22;5080;48.528;8.078;2023-07-16T09:22:01;23.80;99.90
10083;DHT22;5080;48.528;8.078;2023-07-16T09:24:29;23.70;99.90
10083;DHT22;5080;48.528;8.078;2023-07-16T09:26:55;23.60;99.90
10083;DHT22;5080;48.528;8.078;2023-07-16T09:29:25;23.70;99.90
10083;DHT22;5080;48.528;8.078;2023-07-16T09:31:58;24.10;99.90
10083;DHT22;5080;48.528;8.078;2023-07-16T09:34:27;24.20;99.90
10083;DHT22;5080;48.528;8.078;2023-07-16T09:36:55;24.30;99.90
10083;DHT22;5080;48.528;8.078;2023-07-16T09:39:23;24.40;99.90
10083;DHT22;5080;48.528;8.078;2023-07-16T09:41:51;24.40;99.90
10083;DHT22;5080;48.528;8.078;2023-07-16T09:44:19;24.40;99.90
10083;DHT22;5080;48.528;8.078;2023-07-16T09:46:47;24.60;99.90
10083;DHT22;5080;48.528;8.078;2023-07-16T09:49:16;24.80;99.90
10083;DHT22;5080;48.528;8.078;2023-07-16T09:51:44;25.20;99.90
10083;DHT22;5080;48.528;8.078;2023-07-16T09:54:14;25.40;99.90
10083;DHT22;5080;48.528;8.078;2023-07-16T09:56:44;25.30;99.90
10083;DHT22;5080;48.528;8.078;2023-07-16T09:59:13;25.30;99.90
10083;DHT22;5080;48.528;8.078;2023-07-16T10:01:41;25.40;99.90
10083;DHT22;5080;48.528;8.078;2023-07-16T10:04:12;25.40;99.90
10083;DHT22;5080;48.528;8.078;2023-07-16T10:06:52;25.80;99.90
10083;DHT22;5080;48.528;8.078;2023-07-16T10:09:32;25.80;99.90
10083;DHT22;5080;48.528;8.078;2023-07-16T10:12:11;25.90;99.90
10083;DHT22;5080;48.528;8.078;2023-07-16T10:14:42;25.90;99.90
10083;DHT22;5080;48.528;8.078;2023-07-16T10:17:13;25.70;99.90
10083;DHT22;5080;48.528;8.078;2023-07-16T10:19:48;25.50;99.90
10083;DHT22;5080;48.528;8.078;2023-07-16T10:22:17;25.30;99.90
10083;DHT22;5080;48.528;8.078;2023-07-16T10:24:50;25.20;99.90
10083;DHT22;5080;48.528;8.078;2023-07-16T10:27:26;25.40;99.90
10083;DHT22;5080;48.528;8.078;2023-07-16T10:29:53;25.50;99.90
10083;DHT22;5080;48.528;8.078;2023-07-16T10:32:21;25.50;99.90
10083;DHT22;5080;48.528;8.078;2023-07-16T10:34:48;25.60;99.90
10083;DHT22;5080;48.528;8.078;2023-07-16T10:37:16;25.70;99.90
10083;DHT22;5080;48.528;8.078;2023-07-16T10:39:47;25.80;99.90
10083;DHT22;5080;48.528;8.078;2023-07-16T10:42:15;26.00;99.90
10083;DHT22;5080;48.528;8.078;2023-07-16T10:44:43;26.10;99.90
10083;DHT22;5080;48.528;8.078;2023-07-16T10:47:17;26.10;99.90
10083;DHT22;5080;48.528;8.078;2023-07-16T10:49:44;25.80;99.90
10083;DHT22;5080;48.528;8.078;2023-07-16T10:52:11;25.40;99.90
10083;DHT22;5080;48.528;8.078;2023-07-16T10:54:41;24.90;99.90
10083;DHT22;5080;48.528;8.078;2023-07-16T10:57:08;24.90;99.90
10083;DHT22;5080;48.528;8.078;2023-07-16T10:59:37;25.00;99.90
10083;DHT22;5080;48.528;8.078;2023-07-16T11:02:08;24.90;99.90
10083;DHT22;5080;48.528;8.078;2023-07-16T11:04:35;24.90;99.90
10083;DHT22;5080;48.528;8.078;2023-07-16T11:07:05;25.00;99.90
10083;DHT22;5080;48.528;8.078;2023-07-16T11:09:34;25.20;99.90
10083;DHT22;5080;48.528;8.078;2023-07-16T11:12:08;25.20;99.90
10083;DHT22;5080;48.528;8.078;2023-07-16T11:14:36;24.80;99.90
10083;DHT22;5080;48.528;8.078;2023-07-16T11:17:07;24.40;99.90
10083;DHT22;5080;48.528;8.078;2023-07-16T11:19:37;24.60;99.90
10083;DHT22;5080;48.528;8.078;2023-07-16T11:22:07;24.60;99.90
10083;DHT22;5080;48.528;8.078;2023-07-16T11:24:38;24.80;99.90
10083;DHT22;5080;48.528;8.078;2023-07-16T11:27:12;24.80;99.90
10083;DHT22;5080;48.528;8.078;2023-07-16T11:29:39;24.90;99.90
10083;DHT22;5080;48.528;8.078;2023-07-16T11:32:08;25.10;99.90
10083;DHT22;5080;48.528;8.078;2023-07-16T11:34:35;25.30;99.90
10083;DHT22;5080;48.528;8.078;2023-07-16T11:37:09;25.50;99.90
10083;DHT22;5080;48.528;8.078;2023-07-16T11:39:36;25.70;99.90
10083;DHT22;5080;48.528;8.078;2023-07-16T11:42:04;25.80;99.90
10083;DHT22;5080;48.528;8.078;2023-07-16T11:44:36;26.10;99.90
10083;DHT22;5080;48.528;8.078;2023-07-16T11:47:04;26.20;99.90
10083;DHT22;5080;48.528;8.078;2023-07-16T11:49:30;26.20;99.90
10083;DHT22;5080;48.528;8.078;2023-07-16T11:51:58;26.10;99.90
10083;DHT22;5080;48.528;8.078;2023-07-16T11:54:25;26.00;99.90
10083;DHT22;5080;48.528;8.078;2023-07-16T11:56:53;26.30;99.90
10083;DHT22;5080;48.528;8.078;2023-07-16T11:59:20;26.50;99.90
10083;DHT22;5080;48.528;8.078;2023-07-16T12:01:49;26.40;99.90
10083;DHT22;5080;48.528;8.078;2023-07-16T12:04:16;26.10;99.90
10083;DHT22;5080;48.528;8.078;2023-07-16T12:06:43;26.10;99.90
10083;DHT22;5080;48.528;8.078;2023-07-16T12:09:10;26.20;99.90
10083;DHT22;5080;48.528;8.078;2023-07-16T12:11:36;26.10;99.90
10083;DHT22;5080;48.528;8.078;2023-07-16T12:14:04;26.30;99.90
10083;DHT22;5080;48.528;8.078;2023-07-16T12:16:31;26.40;99.90
10083;DHT22;5080;48.528;8.078;2023-07-16T12:18:59;26.60;99.90
10083;DHT22;5080;48.528;8.078;2023-07-16T12:21:26;26.50;99.90
10083;DHT22;5080;48.528;8.078;2023-07-16T12:23:53;26.70;99.90
10083;DHT22;5080;48.528;8.078;2023-07-16T12:26:20;26.60;99.90
10083;DHT22;5080;48.528;8.078;2023-07-16T12:28:47;26.10;99.90
10083;DHT22;5080;48.528;8.078;2023-07-16T12:31:14;26.00;99.90
10083;DHT22;5080;48.528;8.078;2023-07-16T12:33:42;26.00;99.90
10083;DHT22;5080;48.528;8.078;2023-07-16T12:38:47;26.10;99.90
10083;DHT22;5080;48.528;8.078;2023-07-16T12:41:14;26.10;99.90
10083;DHT22;5080;48.528;8.078;2023-07-16T12:43:41;26.00;99.90
10083;DHT22;5080;48.528;8.078;2023-07-16T12:46:08;26.10;99.90
10083;DHT22;5080;48.528;8.078;2023-07-16T12:48:35;26.30;99.90
10083;DHT22;5080;48.528;8.078;2023-07-16T12:51:02;26.40;99.90
10083;DHT22;5080;48.528;8.078;2023-07-16T12:53:29;26.50;99.90
10083;DHT22;5080;48.528;8.078;2023-07-16T12:55:58;26.50;99.90
10083;DHT22;5080;48.528;8.078;2023-07-16T12:58:25;26.30;99.90
10083;DHT22;5080;48.528;8.078;2023-07-16T13:00:52;26.30;99.90
10083;DHT22;5080;48.528;8.078;2023-07-16T13:03:19;26.20;99.90
10083;DHT22;5080;48.528;8.078;2023-07-16T13:05:47;26.40;99.90
10083;DHT22;5080;48.528;8.078;2023-07-16T13:08:14;26.50;99.90
10083;DHT22;5080;48.528;8.078;2023-07-16T13:10:41;26.70;99.90
10083;DHT22;5080;48.528;8.078;2023-07-16T13:13:09;27.10;99.90
10083;DHT22;5080;48.528;8.078;2023-07-16T13:15:36;27.30;99.90
10083;DHT22;5080;48.528;8.078;2023-07-16T13:18:03;27.20;99.90
10083;DHT22;5080;48.528;8.078;2023-07-16T13:20:30;27.10;99.90
10083;DHT22;5080;48.528;8.078;2023-07-16T13:22:57;27.00;99.90
10083;DHT22;5080;48.528;8.078;2023-07-16T13:25:23;27.10;99.90
10083;DHT22;5080;48.528;8.078;2023-07-16T13:27:50;27.10;99.90
10083;DHT22;5080;48.528;8.078;2023-07-16T13:30:19;26.90;99.90
10083;DHT22;5080;48.528;8.078;2023-07-16T13:32:46;26.90;99.90
10083;DHT22;5080;48.528;8.078;2023-07-16T13:35:14;27.00;99.90
10083;DHT22;5080;48.528;8.078;2023-07-16T13:37:42;27.10;99.90
10083;DHT22;5080;48.528;8.078;2023-07-16T13:40:09;27.10;99.90
10083;DHT22;5080;48.528;8.078;2023-07-16T13:42:36;27.20;99.90
10083;DHT22;5080;48.528;8.078;2023-07-16T13:45:04;27.10;99.90
10083;DHT22;5080;48.528;8.078;2023-07-16T13:47:33;27.10;99.90
10083;DHT22;5080;48.528;8.078;2023-07-16T13:50:00;27.10;99.90
10083;DHT22;5080;48.528;8.078;2023-07-16T13:52:27;27.10;99.90
10083;DHT22;5080;48.528;8.078;2023-07-16T13:54:54;27.50;99.90
10083;DHT22;5080;48.528;8.078;2023-07-16T13:57:20;27.70;99.90
10083;DHT22;5080;48.528;8.078;2023-07-16T13:59:47;27.60;99.90
10083;DHT22;5080;48.528;8.078;2023-07-16T14:02:14;27.60;99.90
10083;DHT22;5080;48.528;8.078;2023-07-16T14:04:42;27.40;99.90
10083;DHT22;5080;48.528;8.078;2023-07-16T14:07:09;27.20;99.90
10083;DHT22;5080;48.528;8.078;2023-07-16T14:09:36;27.30;99.90
10083;DHT22;5080;48.528;8.078;2023-07-16T14:12:04;27.50;99.90
10083;DHT22;5080;48.528;8.078;2023-07-16T14:14:30;27.50;99.90
10083;DHT22;5080;48.528;8.078;2023-07-16T14:16:57;27.20;99.90
10083;DHT22;5080;48.528;8.078;2023-07-16T14:19:24;27.10;99.90
10083;DHT22;5080;48.528;8.078;2023-07-16T14:21:52;27.10;99.90
10083;DHT22;5080;48.528;8.078;2023-07-16T14:24:19;27.10;99.90
10083;DHT22;5080;48.528;8.078;2023-07-16T14:26:46;27.40;99.90
10083;DHT22;5080;48.528;8.078;2023-07-16T14:29:14;27.30;99.90
10083;DHT22;5080;48.528;8.078;2023-07-16T14:31:41;27.10;99.90
10083;DHT22;5080;48.528;8.078;2023-07-16T14:34:08;27.10;99.90
10083;DHT22;5080;48.528;8.078;2023-07-16T14:36:35;27.00;99.90
10083;DHT22;5080;48.528;8.078;2023-07-16T14:39:03;26.90;99.90
10083;DHT22;5080;48.528;8.078;2023-07-16T14:41:30;27.00;99.90
10083;DHT22;5080;48.528;8.078;2023-07-16T14:43:57;27.20;99.90
10083;DHT22;5080;48.528;8.078;2023-07-16T14:46:23;27.50;99.90
10083;DHT22;5080;48.528;8.078;2023-07-16T14:48:50;27.70;99.90
10083;DHT22;5080;48.528;8.078;2023-07-16T14:51:21;27.60;99.90
10083;DHT22;5080;48.528;8.078;2023-07-16T14:53:48;27.50;99.90
10083;DHT22;5080;48.528;8.078;2023-07-16T14:56:16;27.40;99.90
10083;DHT22;5080;48.528;8.078;2023-07-16T14:58:43;27.50;99.90
10083;DHT22;5080;48.528;8.078;2023-07-16T15:01:10;27.50;99.90
10083;DHT22;5080;48.528;8.078;2023-07-16T15:03:37;27.40;99.90
10083;DHT22;5080;48.528;8.078;2023-07-16T15:06:05;27.30;99.90
10083;DHT22;5080;48.528;8.078;2023-07-16T15:08:32;27.30;99.90
10083;DHT22;5080;48.528;8.078;2023-07-16T15:10:59;27.50;99.90
10083;DHT22;5080;48.528;8.078;2023-07-16T15:13:27;27.70;99.90
10083;DHT22;5080;48.528;8.078;2023-07-16T15:15:55;27.80;99.90
10083;DHT22;5080;48.528;8.078;2023-07-16T15:18:22;27.60;99.90
10083;DHT22;5080;48.528;8.078;2023-07-16T15:20:55;27.50;99.90
10083;DHT22;5080;48.528;8.078;2023-07-16T15:23:22;27.30;99.90
10083;DHT22;5080;48.528;8.078;2023-07-16T15:25:49;27.30;99.90
10083;DHT22;5080;48.528;8.078;2023-07-16T15:28:16;27.10;99.90
10083;DHT22;5080;48.528;8.078;2023-07-16T15:30:44;27.10;99.90
10083;DHT22;5080;48.528;8.078;2023-07-16T15:33:11;27.20;99.90
10083;DHT22;5080;48.528;8.078;2023-07-16T15:35:38;27.10;99.90
10083;DHT22;5080;48.528;8.078;2023-07-16T15:38:04;27.10;99.90
10083;DHT22;5080;48.528;8.078;2023-07-16T15:40:33;27.20;99.90
10083;DHT22;5080;48.528;8.078;2023-07-16T15:43:00;27.40;99.90
10083;DHT22;5080;48.528;8.078;2023-07-16T15:45:27;27.20;99.90
10083;DHT22;5080;48.528;8.078;2023-07-16T15:47:55;27.10;99.90
10083;DHT22;5080;48.528;8.078;2023-07-16T15:50:24;27.10;99.90